createdAt,value
2022-08-29T00:01:13.709Z,16.52
2022-08-29T00:03:41.137Z,16.95
2022-08-29T00:06:11.941Z,13.43
2022-08-29T00:08:39.573Z,13.30
2022-08-29T00:11:07.977Z,10.90
2022-08-29T00:13:35.529Z,15.27
2022-08-29T00:16:03.413Z,14.45
2022-08-29T00:18:30.911Z,14.40
2022-08-29T00:20:58.322Z,22.63
2022-08-29T00:23:27.028Z,16.88
2022-08-29T00:25:54.757Z,12.55
2022-08-29T00:28:22.179Z,16.38
2022-08-29T00:30:49.694Z,15.50
2022-08-29T00:33:17.420Z,16.23
2022-08-29T00:35:46.345Z,15.40
2022-08-29T00:38:19.354Z,16.50
2022-08-29T00:40:51.998Z,15.10
2022-08-29T00:43:21.807Z,16.40
2022-08-29T00:45:52.815Z,13.63
2022-08-29T00:48:20.643Z,15.77
2022-08-29T00:50:52.490Z,14.98
2022-08-29T00:53:24.681Z,12.65
2022-08-29T00:55:53.367Z,14.77
2022-08-29T00:58:26.483Z,14.57
2022-08-29T01:00:54.480Z,11.98
2022-08-29T01:03:21.991Z,15.23
2022-08-29T01:05:49.705Z,15.52
2022-08-29T01:08:17.243Z,16.52
2022-08-29T01:11:02.275Z,15.65
2022-08-29T01:13:34.935Z,16.98
2022-08-29T01:16:03.474Z,15.57
2022-08-29T01:18:32.537Z,19.83
2022-08-29T01:21:04.781Z,17.38
2022-08-29T01:23:35.426Z,13.05
2022-08-29T01:26:04.884Z,16.80
2022-08-29T01:28:35.214Z,21.35
2022-08-29T01:31:05.767Z,15.57
2022-08-29T01:33:39.286Z,18.33
2022-08-29T01:36:07.275Z,12.75
2022-08-29T01:38:34.919Z,17.27
2022-08-29T01:41:05.545Z,12.75
2022-08-29T01:43:39.780Z,12.45
2022-08-29T01:46:07.192Z,15.02
2022-08-29T01:48:37.484Z,17.80
2022-08-29T01:51:04.932Z,11.80
2022-08-29T01:53:32.333Z,17.05
2022-08-29T01:55:59.911Z,12.02
2022-08-29T01:58:28.590Z,12.35
2022-08-29T02:00:56.062Z,9.93
2022-08-29T02:03:23.489Z,14.68
2022-08-29T02:05:50.891Z,11.73
2022-08-29T02:08:20.100Z,13.98
2022-08-29T02:10:48.160Z,12.57
2022-08-29T02:13:15.556Z,12.52
2022-08-29T02:15:44.252Z,14.85
2022-08-29T02:18:11.729Z,12.00
2022-08-29T02:20:39.267Z,16.15
2022-08-29T02:23:17.293Z,15.75
2022-08-29T02:25:54.393Z,21.30
2022-08-29T02:28:22.284Z,16.60
2022-08-29T02:30:56.503Z,19.13
2022-08-29T02:33:24.548Z,16.00
2022-08-29T02:35:53.229Z,21.17
2022-08-29T02:38:21.248Z,12.15
2022-08-29T02:40:49.842Z,18.30
2022-08-29T02:43:19.134Z,16.33
2022-08-29T02:45:47.609Z,19.25
2022-08-29T02:48:17.826Z,14.20
2022-08-29T02:50:46.693Z,15.65
2022-08-29T02:53:16.834Z,18.98
2022-08-29T02:55:44.199Z,14.85
2022-08-29T02:58:11.656Z,16.98
2022-08-29T03:00:39.106Z,18.92
2022-08-29T03:03:06.596Z,16.88
2022-08-29T03:05:37.105Z,16.80
2022-08-29T03:08:07.570Z,15.30
2022-08-29T03:10:34.971Z,16.92
2022-08-29T03:13:02.502Z,14.63
2022-08-29T03:15:29.871Z,17.23
2022-08-29T03:17:57.365Z,15.00
2022-08-29T03:20:25.497Z,19.38
2022-08-29T03:22:55.424Z,11.70
2022-08-29T03:25:24.341Z,14.35
2022-08-29T03:27:52.794Z,17.83
2022-08-29T03:30:20.895Z,17.35
2022-08-29T03:32:51.260Z,21.08
2022-08-29T03:35:19.566Z,23.75
2022-08-29T03:37:46.972Z,15.82
2022-08-29T03:40:15.774Z,17.42
2022-08-29T03:42:43.776Z,14.73
2022-08-29T03:45:14.372Z,12.38
2022-08-29T03:47:42.021Z,17.83
2022-08-29T03:50:10.762Z,12.98
2022-08-29T03:52:38.442Z,17.60
2022-08-29T03:55:08.271Z,17.73
2022-08-29T03:57:37.131Z,15.40
2022-08-29T04:00:11.801Z,16.08
2022-08-29T04:02:39.634Z,20.05
2022-08-29T04:05:10.205Z,19.50
2022-08-29T04:07:42.573Z,17.27
2022-08-29T04:10:11.383Z,17.00
2022-08-29T04:12:40.109Z,17.70
2022-08-29T04:15:08.835Z,15.60
2022-08-29T04:17:37.283Z,21.80
2022-08-29T04:20:21.652Z,20.67
2022-08-29T04:22:52.133Z,23.05
2022-08-29T04:25:19.503Z,19.15
2022-08-29T04:27:49.385Z,22.13
2022-08-29T04:30:18.605Z,16.40
2022-08-29T04:32:46.081Z,23.52
2022-08-29T04:35:15.624Z,19.30
2022-08-29T04:37:43.645Z,19.58
2022-08-29T04:40:15.477Z,17.33
2022-08-29T04:42:43.512Z,16.73
2022-08-29T04:45:14.548Z,17.88
2022-08-29T04:47:42.929Z,17.98
2022-08-29T04:50:12.701Z,24.48
2022-08-29T04:52:40.473Z,21.13
2022-08-29T04:55:09.730Z,21.92
2022-08-29T04:57:38.132Z,22.75
2022-08-29T05:00:07.613Z,19.90
2022-08-29T05:02:36.352Z,24.02
2022-08-29T05:05:04.254Z,18.98
2022-08-29T05:07:31.615Z,18.52
2022-08-29T05:10:02.134Z,17.05
2022-08-29T05:12:31.344Z,20.80
2022-08-29T05:14:58.832Z,25.23
2022-08-29T05:17:26.888Z,15.88
2022-08-29T05:19:55.648Z,18.10
2022-08-29T05:22:23.543Z,14.27
2022-08-29T05:24:51.134Z,16.50
2022-08-29T05:27:22.927Z,22.17
2022-08-29T05:29:52.235Z,21.42
2022-08-29T05:32:21.330Z,19.92
2022-08-29T05:34:50.076Z,21.70
2022-08-29T05:37:20.575Z,22.38
2022-08-29T05:39:48.608Z,15.05
2022-08-29T05:42:17.265Z,18.33
2022-08-29T05:44:44.991Z,18.55
2022-08-29T05:47:14.133Z,18.67
2022-08-29T05:49:43.130Z,21.15
2022-08-29T05:52:10.803Z,22.40
2022-08-29T05:54:41.736Z,19.77
2022-08-29T05:57:11.645Z,18.73
2022-08-29T05:59:41.788Z,19.92
2022-08-29T06:02:10.870Z,23.40
2022-08-29T06:04:39.051Z,21.92
2022-08-29T06:07:07.133Z,23.98
2022-08-29T06:09:34.976Z,24.48
2022-08-29T06:12:04.322Z,25.63
2022-08-29T06:14:31.792Z,20.67
2022-08-29T06:16:59.441Z,21.95
2022-08-29T06:19:29.088Z,24.17
2022-08-29T06:21:56.934Z,18.95
2022-08-29T06:24:24.303Z,22.73
2022-08-29T06:26:51.681Z,21.23
2022-08-29T06:29:20.397Z,19.30
2022-08-29T06:31:47.786Z,17.27
2022-08-29T06:34:15.174Z,21.75
2022-08-29T06:36:43.036Z,23.00
2022-08-29T06:39:11.223Z,24.08
2022-08-29T06:41:39.963Z,16.38
2022-08-29T06:44:07.991Z,22.27
2022-08-29T06:46:38.541Z,29.25
2022-08-29T06:49:09.791Z,27.10
2022-08-29T06:51:38.239Z,22.77
2022-08-29T06:54:07.727Z,19.10
2022-08-29T06:56:36.619Z,16.58
2022-08-29T06:59:04.772Z,22.38
2022-08-29T07:01:32.260Z,23.42
2022-08-29T07:04:03.193Z,18.77
2022-08-29T07:06:31.238Z,19.80
2022-08-29T07:08:59.163Z,22.17
2022-08-29T07:11:28.102Z,21.98
2022-08-29T07:13:57.015Z,23.60
2022-08-29T07:16:24.537Z,22.80
2022-08-29T07:18:53.758Z,24.17
2022-08-29T07:21:24.469Z,40.05
2022-08-29T07:23:52.705Z,42.20
2022-08-29T07:26:22.733Z,25.75
2022-08-29T07:28:51.417Z,33.33
2022-08-29T07:31:19.498Z,22.40
2022-08-29T07:33:47.068Z,22.40
2022-08-29T07:36:14.587Z,28.95
2022-08-29T07:38:43.312Z,20.88
2022-08-29T07:41:14.226Z,25.95
2022-08-29T07:43:41.862Z,20.15
2022-08-29T07:46:10.230Z,20.90
2022-08-29T07:48:39.456Z,23.58
2022-08-29T07:51:10.469Z,23.92
2022-08-29T07:53:38.155Z,20.83
2022-08-29T07:56:08.502Z,27.45
2022-08-29T07:58:36.237Z,20.02
2022-08-29T08:01:04.200Z,22.00
2022-08-29T08:03:31.868Z,19.55
2022-08-29T08:05:59.447Z,22.20
2022-08-29T08:08:27.063Z,21.02
2022-08-29T08:10:54.850Z,27.45
2022-08-29T08:13:23.974Z,21.65
2022-08-29T08:15:51.335Z,18.35
2022-08-29T08:18:18.708Z,19.05
2022-08-29T08:20:48.288Z,22.15
2022-08-29T08:23:16.973Z,24.02
2022-08-29T08:25:45.656Z,23.20
2022-08-29T08:28:14.461Z,20.55
2022-08-29T08:30:43.362Z,21.30
2022-08-29T08:33:10.882Z,26.48
2022-08-29T08:35:41.848Z,14.90
2022-08-29T08:38:10.150Z,21.27
2022-08-29T08:40:43.272Z,18.10
2022-08-29T08:43:11.397Z,29.40
2022-08-29T08:45:41.920Z,19.58
2022-08-29T08:48:16.550Z,21.58
2022-08-29T08:50:49.126Z,17.65
2022-08-29T08:53:21.385Z,20.02
2022-08-29T08:55:50.236Z,20.05
2022-08-29T08:58:29.215Z,14.02
2022-08-29T09:01:00.469Z,14.85
2022-08-29T09:04:03.991Z,18.30
2022-08-29T09:06:44.480Z,22.48
2022-08-29T09:09:18.345Z,20.83
2022-08-29T09:11:53.709Z,21.02
2022-08-29T09:14:29.185Z,15.98
2022-08-29T09:16:59.558Z,23.33
2022-08-29T09:19:28.323Z,22.35
2022-08-29T09:22:00.178Z,17.60
2022-08-29T09:24:33.087Z,20.48
2022-08-29T09:27:00.563Z,16.30
2022-08-29T09:29:30.347Z,16.58
2022-08-29T09:32:08.213Z,17.27
2022-08-29T09:35:06.944Z,22.27
2022-08-29T09:37:31.338Z,20.85
2022-08-29T09:40:02.296Z,14.57
2022-08-29T09:42:32.764Z,22.38
2022-08-29T09:45:05.611Z,19.33
2022-08-29T09:47:33.902Z,15.63
2022-08-29T09:50:09.255Z,15.30
2022-08-29T09:52:38.573Z,18.05
2022-08-29T09:55:29.967Z,16.58
2022-08-29T09:58:01.006Z,15.70
2022-08-29T10:00:31.576Z,19.85
2022-08-29T10:03:01.308Z,16.65
2022-08-29T10:05:35.782Z,16.27
2022-08-29T10:08:04.417Z,10.60
2022-08-29T10:10:36.019Z,16.13
2022-08-29T10:13:08.184Z,21.75
2022-08-29T10:15:50.494Z,15.35
2022-08-29T10:18:24.746Z,15.57
2022-08-29T10:21:03.301Z,14.93
2022-08-29T10:23:35.817Z,19.98
2022-08-29T10:26:07.194Z,12.45
2022-08-29T10:28:42.932Z,19.30
2022-08-29T10:31:12.653Z,14.20
2022-08-29T10:33:57.465Z,15.88
2022-08-29T10:36:31.093Z,17.25
2022-08-29T10:39:02.406Z,13.85
2022-08-29T10:41:34.211Z,13.23
2022-08-29T10:44:11.666Z,14.98
2022-08-29T10:46:54.036Z,17.00
2022-08-29T10:49:28.492Z,14.38
2022-08-29T10:52:05.300Z,13.13
2022-08-29T10:54:41.031Z,12.10
2022-08-29T10:57:09.795Z,10.65
2022-08-29T10:59:42.710Z,12.40
2022-08-29T11:02:13.706Z,10.20
2022-08-29T11:04:44.651Z,13.55
2022-08-29T11:07:17.262Z,11.15
2022-08-29T11:09:47.158Z,12.43
2022-08-29T11:12:17.651Z,13.07
2022-08-29T11:14:48.953Z,8.00
2022-08-29T11:17:18.193Z,10.35
2022-08-29T11:20:00.201Z,7.50
2022-08-29T11:22:32.543Z,12.52
2022-08-29T11:25:05.295Z,11.23
2022-08-29T11:27:39.587Z,7.17
2022-08-29T11:30:09.339Z,9.02
2022-08-29T11:32:44.440Z,10.50
2022-08-29T11:35:18.221Z,7.13
2022-08-29T11:38:05.827Z,12.98
2022-08-29T11:41:25.880Z,9.07
2022-08-29T11:43:44.071Z,10.45
2022-08-29T11:46:13.784Z,9.50
2022-08-29T11:48:43.515Z,11.80
2022-08-29T11:51:31.809Z,9.45
2022-08-29T11:54:39.909Z,9.88
2022-08-29T11:57:39.667Z,10.18
2022-08-29T12:02:54.846Z,13.27
2022-08-29T12:05:53.993Z,24.45
2022-08-29T12:08:37.253Z,17.27
2022-08-29T12:11:07.398Z,9.30
2022-08-29T12:14:00.665Z,15.00
2022-08-29T12:16:50.564Z,9.05
2022-08-29T12:19:51.831Z,12.93
2022-08-29T12:23:01.872Z,24.02
2022-08-29T12:25:48.063Z,18.38
2022-08-29T12:28:37.501Z,16.83
2022-08-29T12:31:11.114Z,7.90
2022-08-29T12:33:46.997Z,13.10
2022-08-29T12:36:31.046Z,7.85
2022-08-29T12:44:05.858Z,6.78
2022-08-29T12:46:35.708Z,11.90
2022-08-29T12:49:08.962Z,8.10
2022-08-29T12:51:38.732Z,14.48
2022-08-29T12:54:06.913Z,14.07
2022-08-29T12:56:34.510Z,26.13
2022-08-29T12:59:04.854Z,24.00
2022-08-29T13:01:34.360Z,19.88
2022-08-29T13:04:04.417Z,6.22
2022-08-29T13:06:33.279Z,10.75
2022-08-29T13:09:01.356Z,9.60
2022-08-29T13:11:30.955Z,11.35
2022-08-29T13:14:10.833Z,6.78
2022-08-29T13:16:39.931Z,20.98
2022-08-29T13:19:19.355Z,14.07
2022-08-29T13:21:46.905Z,10.98
2022-08-29T13:24:19.227Z,9.40
2022-08-29T13:27:06.059Z,7.07
2022-08-29T13:29:37.948Z,36.05
2022-08-29T13:32:26.905Z,6.78
2022-08-29T13:35:00.931Z,9.00
2022-08-29T13:37:31.164Z,9.75
2022-08-29T13:40:33.658Z,10.63
2022-08-29T13:43:01.978Z,8.13
2022-08-29T13:45:29.669Z,7.82
2022-08-29T13:48:00.032Z,8.98
2022-08-29T13:50:28.092Z,11.00
2022-08-29T13:52:57.426Z,8.32
2022-08-29T13:55:25.047Z,9.02
2022-08-29T13:57:55.008Z,17.70
2022-08-29T14:00:32.411Z,12.20
2022-08-29T14:03:05.350Z,11.43
2022-08-29T14:05:32.982Z,25.27
2022-08-29T14:08:00.418Z,15.32
2022-08-29T14:10:27.901Z,12.70
2022-08-29T14:12:56.611Z,25.15
2022-08-29T14:15:23.978Z,23.55
2022-08-29T14:17:51.392Z,19.13
2022-08-29T14:20:19.543Z,6.68
2022-08-29T14:22:47.775Z,18.88
2022-08-29T14:25:17.348Z,11.43
2022-08-29T14:27:46.205Z,9.32
2022-08-29T14:30:17.611Z,12.45
2022-08-29T14:32:45.039Z,14.18
2022-08-29T14:35:25.916Z,8.88
2022-08-29T14:37:54.436Z,6.72
2022-08-29T14:40:22.109Z,11.80
2022-08-29T14:42:49.701Z,12.45
2022-08-29T14:45:18.526Z,12.68
2022-08-29T14:47:47.172Z,7.85
2022-08-29T14:50:16.414Z,8.57
2022-08-29T14:52:44.257Z,9.35
2022-08-29T14:55:12.678Z,6.07
2022-08-29T14:57:40.461Z,7.45
2022-08-29T15:00:09.719Z,9.68
2022-08-29T15:02:38.501Z,6.82
2022-08-29T15:05:06.773Z,7.72
2022-08-29T15:07:34.175Z,10.18
2022-08-29T15:10:01.572Z,11.05
2022-08-29T15:12:29.078Z,8.90
2022-08-29T15:14:56.502Z,7.30
2022-08-29T15:17:24.493Z,7.57
2022-08-29T15:20:36.920Z,6.85
2022-08-29T15:22:41.671Z,10.10
2022-08-29T15:25:09.470Z,5.13
2022-08-29T15:27:36.883Z,13.43
2022-08-29T15:30:05.311Z,6.40
2022-08-29T15:32:34.481Z,8.60
2022-08-29T15:35:03.201Z,9.00
2022-08-29T15:37:30.619Z,7.40
2022-08-29T15:39:58.231Z,6.90
2022-08-29T15:42:30.153Z,9.13
2022-08-29T15:44:59.515Z,7.13
2022-08-29T15:47:29.891Z,5.03
2022-08-29T15:49:57.782Z,9.18
2022-08-29T15:52:26.591Z,6.75
2022-08-29T15:54:54.031Z,6.30
2022-08-29T15:57:22.071Z,5.45
2022-08-29T15:59:58.338Z,12.68
2022-08-29T16:02:26.346Z,4.57
2022-08-29T16:04:57.000Z,8.32
2022-08-29T16:07:28.731Z,12.43
2022-08-29T16:09:57.205Z,7.55
2022-08-29T16:12:24.619Z,6.88
2022-08-29T16:15:00.372Z,6.00
2022-08-29T16:17:31.239Z,5.10
2022-08-29T16:19:59.243Z,3.40
2022-08-29T16:22:28.764Z,4.43
2022-08-29T16:24:56.229Z,7.03
2022-08-29T16:27:24.418Z,7.28
2022-08-29T16:29:52.192Z,6.60
2022-08-29T16:32:19.596Z,6.40
2022-08-29T16:34:46.975Z,6.97
2022-08-29T16:37:14.511Z,9.73
2022-08-29T16:39:43.260Z,9.88
2022-08-29T16:42:12.117Z,6.32
2022-08-29T16:44:39.910Z,6.30
2022-08-29T16:47:07.342Z,5.03
2022-08-29T16:49:34.758Z,8.27
2022-08-29T16:52:03.036Z,6.82
2022-08-29T16:54:30.773Z,5.07
2022-08-29T16:56:59.506Z,5.63
2022-08-29T16:59:26.926Z,9.23
2022-08-29T17:01:56.243Z,5.03
2022-08-29T17:04:27.584Z,7.55
2022-08-29T17:06:55.428Z,7.57
2022-08-29T17:09:23.865Z,4.57
2022-08-29T17:11:52.234Z,4.93
2022-08-29T17:14:21.119Z,3.80
2022-08-29T17:16:50.989Z,4.95
2022-08-29T17:19:18.911Z,2.13
2022-08-29T17:21:47.665Z,3.33
2022-08-29T17:24:15.311Z,3.45
2022-08-29T17:26:46.289Z,3.70
2022-08-29T17:29:14.140Z,3.05
2022-08-29T17:31:43.133Z,4.65
2022-08-29T17:34:11.873Z,3.13
2022-08-29T17:36:40.669Z,2.50
2022-08-29T17:39:09.320Z,3.08
2022-08-29T17:41:37.637Z,5.65
2022-08-29T17:44:06.296Z,8.20
2022-08-29T17:46:33.783Z,2.60
2022-08-29T17:49:07.470Z,3.88
2022-08-29T17:51:35.549Z,3.40
2022-08-29T17:54:03.476Z,2.42
2022-08-29T17:56:44.361Z,4.70
2022-08-29T17:59:12.127Z,2.80
2022-08-29T18:01:40.518Z,5.72
2022-08-29T18:04:09.358Z,3.90
2022-08-29T18:06:36.820Z,3.60
2022-08-29T18:09:04.580Z,4.05
2022-08-29T18:11:32.188Z,3.55
2022-08-29T18:14:00.022Z,3.53
2022-08-29T18:16:27.760Z,6.47
2022-08-29T18:18:55.263Z,7.60
2022-08-29T18:21:23.996Z,8.07
2022-08-29T18:23:51.391Z,6.18
2022-08-29T18:26:18.769Z,10.40
2022-08-29T18:28:46.255Z,9.20
2022-08-29T18:31:18.424Z,5.22
2022-08-29T18:34:00.112Z,8.48
2022-08-29T18:36:29.872Z,5.10
2022-08-29T18:38:57.411Z,5.53
2022-08-29T18:41:24.838Z,5.35
2022-08-29T18:43:52.328Z,7.53
2022-08-29T18:46:20.283Z,6.50
2022-08-29T18:48:47.940Z,4.13
2022-08-29T18:51:15.815Z,7.45
2022-08-29T18:53:44.897Z,8.15
2022-08-29T18:56:13.127Z,4.05
2022-08-29T18:58:44.149Z,6.28
2022-08-29T19:01:13.491Z,8.98
2022-08-29T19:03:41.579Z,12.32
2022-08-29T19:06:09.453Z,12.40
2022-08-29T19:08:37.347Z,8.07
2022-08-29T19:11:07.949Z,12.60
2022-08-29T19:13:36.187Z,14.73
2022-08-29T19:16:05.487Z,16.27
2022-08-29T19:18:34.133Z,16.42
2022-08-29T19:21:04.738Z,9.38
2022-08-29T19:23:33.977Z,18.33
2022-08-29T19:26:01.698Z,7.57
2022-08-29T19:28:30.515Z,8.73
2022-08-29T19:30:59.789Z,6.60
2022-08-29T19:33:27.191Z,8.02
2022-08-29T19:35:55.818Z,9.10
2022-08-29T19:38:24.311Z,7.97
2022-08-29T19:40:57.111Z,10.13
2022-08-29T19:43:25.134Z,10.73
2022-08-29T19:45:54.415Z,6.32
2022-08-29T19:48:22.353Z,5.38
2022-08-29T19:50:51.557Z,8.98
2022-08-29T19:53:26.550Z,7.15
2022-08-29T19:55:54.946Z,4.75
2022-08-29T19:58:22.826Z,6.70
2022-08-29T20:01:00.469Z,10.82
2022-08-29T20:03:28.809Z,10.95
2022-08-29T20:05:56.385Z,7.05
2022-08-29T20:08:24.128Z,6.75
2022-08-29T20:10:53.377Z,5.05
2022-08-29T20:13:21.042Z,6.60
2022-08-29T20:15:49.802Z,8.95
2022-08-29T20:18:19.711Z,7.32
2022-08-29T20:20:47.916Z,5.88
2022-08-29T20:23:17.332Z,8.98
2022-08-29T20:25:45.735Z,9.77
2022-08-29T20:28:15.841Z,6.55
2022-08-29T20:30:44.428Z,6.55
2022-08-29T20:33:12.123Z,7.43
2022-08-29T20:35:58.470Z,7.00
2022-08-29T20:38:25.908Z,7.85
2022-08-29T20:40:53.342Z,6.28
2022-08-29T20:43:20.855Z,4.47
2022-08-29T20:45:48.279Z,6.07
2022-08-29T20:48:16.278Z,5.80
2022-08-29T20:50:45.672Z,6.72
2022-08-29T20:53:14.627Z,4.88
2022-08-29T20:56:00.089Z,8.07
2022-08-29T20:58:29.018Z,5.53
2022-08-29T21:00:56.669Z,4.82
2022-08-29T21:03:42.080Z,6.40
2022-08-29T21:06:10.793Z,4.13
2022-08-29T21:08:40.881Z,6.78
2022-08-29T21:11:08.330Z,8.30
2022-08-29T21:13:35.723Z,6.65
2022-08-29T21:16:04.541Z,4.68
2022-08-29T21:18:32.127Z,6.00
2022-08-29T21:20:59.665Z,11.00
2022-08-29T21:23:28.973Z,4.63
2022-08-29T21:25:58.665Z,4.55
2022-08-29T21:28:27.649Z,7.35
2022-08-29T21:30:55.740Z,7.88
2022-08-29T21:33:23.439Z,7.18
2022-08-29T21:35:50.821Z,5.10
2022-08-29T21:38:18.780Z,4.28
2022-08-29T21:40:50.642Z,9.07
2022-08-29T21:43:19.111Z,6.00
2022-08-29T21:45:46.495Z,7.35
2022-08-29T21:48:13.972Z,7.20
2022-08-29T21:50:41.404Z,5.28
2022-08-29T21:53:08.869Z,6.72
2022-08-29T21:55:36.350Z,4.25
2022-08-29T21:58:05.350Z,10.10
2022-08-29T22:00:35.793Z,5.57
2022-08-29T22:03:05.827Z,5.93
2022-08-29T22:05:33.596Z,5.25
2022-08-29T22:08:02.980Z,6.55
2022-08-29T22:10:32.915Z,4.28
2022-08-29T22:13:00.912Z,8.50
2022-08-29T22:15:47.182Z,6.07
2022-08-29T22:18:15.128Z,5.88
2022-08-29T22:20:43.182Z,5.53
2022-08-29T22:23:11.207Z,6.45
2022-08-29T22:25:38.847Z,4.78
2022-08-29T22:28:06.975Z,9.68
2022-08-29T22:30:35.669Z,6.55
2022-08-29T22:33:03.772Z,7.18
2022-08-29T22:35:31.233Z,4.68
2022-08-29T22:37:58.990Z,4.03
2022-08-29T22:40:27.351Z,4.15
2022-08-29T22:42:54.912Z,5.80
2022-08-29T22:45:22.524Z,7.30
2022-08-29T22:47:51.200Z,5.18
2022-08-29T22:50:21.310Z,7.35
2022-08-29T22:52:49.167Z,6.20
2022-08-29T22:57:48.057Z,6.93
2022-08-29T23:00:19.157Z,6.55
2022-08-29T23:02:47.083Z,5.50
2022-08-29T23:05:16.618Z,5.18
2022-08-29T23:07:44.282Z,5.47
2022-08-29T23:10:13.270Z,6.53
2022-08-29T23:12:40.878Z,5.28
2022-08-29T23:15:11.301Z,4.32
2022-08-29T23:17:38.706Z,5.97
2022-08-29T23:20:07.619Z,5.07
2022-08-29T23:22:37.729Z,9.10
2022-08-29T23:25:05.790Z,7.47
2022-08-29T23:27:33.939Z,5.72
2022-08-29T23:30:01.848Z,6.97
2022-08-29T23:32:29.380Z,6.72
2022-08-29T23:34:56.908Z,4.43
2022-08-29T23:37:24.548Z,4.30
2022-08-29T23:39:53.377Z,6.50
2022-08-29T23:42:20.769Z,6.53
2022-08-29T23:44:48.764Z,5.22
2022-08-29T23:47:16.520Z,5.20
2022-08-29T23:49:43.899Z,4.03
2022-08-29T23:52:11.380Z,5.43
2022-08-29T23:54:39.163Z,6.72
2022-08-29T23:57:08.192Z,5.30
2022-08-29T23:59:53.156Z,5.57
